Comodoro Rivadavia, Argentina
Current Conditions -  °F | °C
As of 7:00 AM on Saturday 22 Nov 2014 (Local Time) from SAVC Reporting Station
Clear Clear  
Wind Chill: 59°   Ceiling: Unl
Heat Index: 59°   Visibility: 6mi
Dew Point: 36°   Wind: 28mph
Humidity: 42%   Direction: 270°W
Pressure: 29.74"   Gusts: 41mph
Location:  45.86°S, 67.49°W
Report Text: SAVC 221000Z 27024G36KT CAVOK 15/02 Q1007
Loading
Personal Weather Stations






























Interactive Weather Map New forecast layout! Learn more

10-Day Weather Forecast

Advertisements
Track Severe Weather on mobile